1.620 kWh

EHAM AMSTERDAM/SCHIPHOL NLD -3 m.
METAR EHAM 180825Z VRB03KT CAVOK 22/15 Q1015 NOSIG

EHAM AMSTERDAM/SCHIPHOL NLD -3 m.
TAF EHAM 180448Z 1806/1912 VRB03KT CAVOK
BECMG 1815/1818 06008KT
BECMG 1901/1904 17005KT
BECMG 1905/1908 25008KT